createdAt,value
2018-11-05T00:02:19.765Z,80.56
2018-11-05T00:04:48.849Z,80.87
2018-11-05T00:07:16.289Z,80.69
2018-11-05T00:09:43.724Z,80.58
2018-11-05T00:12:14.263Z,80.54
2018-11-05T00:14:41.687Z,80.55
2018-11-05T00:17:13.226Z,80.75
2018-11-05T00:19:41.701Z,80.58
2018-11-05T00:22:09.904Z,80.71
2018-11-05T00:24:37.318Z,80.41
2018-11-05T00:27:04.800Z,80.71
2018-11-05T00:29:32.200Z,80.65
2018-11-05T00:31:59.952Z,80.28
2018-11-05T00:34:27.368Z,80.77
2018-11-05T00:36:54.807Z,80.83
2018-11-05T00:39:22.548Z,80.58
2018-11-05T00:41:51.620Z,80.63
2018-11-05T00:44:19.053Z,80.57
2018-11-05T00:46:46.516Z,80.65
2018-11-05T00:49:14.459Z,80.49
2018-11-05T00:51:42.049Z,80.86
2018-11-05T00:54:11.299Z,80.95
2018-11-05T00:56:38.760Z,80.94
2018-11-05T00:59:08.528Z,80.46
2018-11-05T01:01:35.981Z,80.74
2018-11-05T01:04:03.444Z,80.88
2018-11-05T01:06:31.313Z,81.17
2018-11-05T01:08:58.782Z,81.03
2018-11-05T01:11:26.259Z,81.34
2018-11-05T01:13:53.689Z,80.79
2018-11-05T01:16:21.544Z,80.99
2018-11-05T01:18:48.982Z,80.94
2018-11-05T01:21:16.432Z,80.56
2018-11-05T01:23:43.877Z,80.34
2018-11-05T01:26:11.581Z,80.54
2018-11-05T01:28:40.676Z,80.29
2018-11-05T01:31:08.127Z,80.48
2018-11-05T01:33:36.287Z,80.46
2018-11-05T01:36:04.495Z,80.52
2018-11-05T01:38:31.932Z,80.42
2018-11-05T01:40:59.384Z,80.67
2018-11-05T01:43:27.512Z,80.09
2018-11-05T01:45:54.956Z,80.60
2018-11-05T01:48:22.409Z,80.45
2018-11-05T01:50:49.871Z,80.01
2018-11-05T01:53:17.726Z,79.95
2018-11-05T01:55:45.199Z,79.56
2018-11-05T01:58:13.155Z,80.18
2018-11-05T02:00:40.565Z,79.89
2018-11-05T02:03:08.384Z,79.67
2018-11-05T02:05:35.804Z,79.46
2018-11-05T02:08:03.295Z,79.77
2018-11-05T02:10:30.810Z,79.63
2018-11-05T02:12:58.649Z,79.71
2018-11-05T02:15:26.101Z,79.29
2018-11-05T02:17:53.531Z,79.69
2018-11-05T02:20:20.955Z,79.63
2018-11-05T02:22:48.836Z,79.48
2018-11-05T02:25:16.304Z,79.80
2018-11-05T02:30:47.869Z,80.25
2018-11-05T02:33:15.553Z,79.89
2018-11-05T02:35:43.009Z,79.35
2018-11-05T02:38:10.459Z,79.27
2018-11-05T02:40:38.312Z,79.20
2018-11-05T02:43:08.273Z,78.79
2018-11-05T02:45:35.702Z,78.76
2018-11-05T02:48:03.559Z,79.11
2018-11-05T02:50:30.996Z,78.76
2018-11-05T02:52:58.460Z,78.99
2018-11-05T02:55:27.632Z,78.85
2018-11-05T02:57:55.404Z,78.92
2018-11-05T03:00:22.847Z,78.54
2018-11-05T03:02:50.324Z,78.83
2018-11-05T03:05:18.873Z,78.83
2018-11-05T03:07:47.375Z,78.87
2018-11-05T03:10:15.057Z,78.96
2018-11-05T03:12:43.072Z,78.80
2018-11-05T03:15:11.955Z,78.52
2018-11-05T03:17:40.079Z,79.07
2018-11-05T03:20:08.083Z,78.70
2018-11-05T03:22:35.483Z,78.82
2018-11-05T03:25:02.908Z,78.88
2018-11-05T03:27:30.673Z,78.78
2018-11-05T03:29:58.104Z,78.52
2018-11-05T03:32:25.524Z,78.32
2018-11-05T03:34:52.982Z,78.64
2018-11-05T03:37:20.874Z,78.64
2018-11-05T03:39:48.294Z,78.52
2018-11-05T03:42:15.707Z,78.26
2018-11-05T03:44:43.200Z,78.21
2018-11-05T03:47:11.764Z,78.35
2018-11-05T03:49:39.183Z,78.69
2018-11-05T03:52:06.609Z,78.68
2018-11-05T03:54:34.028Z,78.15
2018-11-05T03:57:01.749Z,78.28
2018-11-05T03:59:29.195Z,78.21
2018-11-05T04:01:56.704Z,78.50
2018-11-05T04:04:24.187Z,78.39
2018-11-05T04:06:52.020Z,77.84
2018-11-05T04:09:19.429Z,78.46
2018-11-05T04:11:50.418Z,78.04
2018-11-05T04:14:18.788Z,78.83
2018-11-05T04:16:46.580Z,78.44
2018-11-05T04:19:14.435Z,78.12
2018-11-05T04:21:43.641Z,78.37
2018-11-05T04:24:12.097Z,78.53
2018-11-05T04:26:40.504Z,78.14
2018-11-05T04:29:08.226Z,79.01
2018-11-05T04:31:35.700Z,78.53
2018-11-05T04:34:03.154Z,78.62
2018-11-05T04:36:30.921Z,78.83
2018-11-05T04:38:58.364Z,78.81
2018-11-05T04:41:26.795Z,78.55
2018-11-05T04:43:54.212Z,78.77
2018-11-05T04:46:21.971Z,79.00
2018-11-05T04:48:49.407Z,79.10
2018-11-05T04:51:16.844Z,78.98
2018-11-05T04:53:44.745Z,79.05
2018-11-05T04:56:12.204Z,79.22
2018-11-05T04:58:39.708Z,79.10
2018-11-05T05:01:07.143Z,78.68
2018-11-05T05:03:34.983Z,78.67
2018-11-05T05:06:02.418Z,78.95
2018-11-05T05:08:29.901Z,78.60
2018-11-05T05:10:57.365Z,78.87
2018-11-05T05:13:25.269Z,78.65
2018-11-05T05:15:52.720Z,79.32
2018-11-05T05:18:20.164Z,78.74
2018-11-05T05:20:47.597Z,79.07
2018-11-05T05:23:15.449Z,78.93
2018-11-05T05:25:45.503Z,79.23
2018-11-05T05:28:12.983Z,79.08
2018-11-05T05:30:40.716Z,79.51
2018-11-05T05:33:08.237Z,79.48
2018-11-05T05:35:35.649Z,79.98
2018-11-05T05:38:03.556Z,79.46
2018-11-05T05:40:31.012Z,79.54
2018-11-05T05:42:58.428Z,79.38
2018-11-05T05:45:25.881Z,79.77
2018-11-05T05:47:53.704Z,79.80
2018-11-05T05:50:21.178Z,80.16
2018-11-05T05:52:49.720Z,79.86
2018-11-05T05:55:17.551Z,79.59
2018-11-05T05:57:45.266Z,80.08
2018-11-05T06:00:14.232Z,79.50
2018-11-05T06:02:43.017Z,79.99
2018-11-05T06:05:11.112Z,79.53
2018-11-05T06:07:39.063Z,80.02
2018-11-05T06:10:07.007Z,79.79
2018-11-05T06:12:34.460Z,79.38
2018-11-05T06:15:02.004Z,79.94
2018-11-05T06:17:30.564Z,79.66
2018-11-05T06:19:58.947Z,79.53
2018-11-05T06:22:26.394Z,79.62
2018-11-05T06:24:54.274Z,79.33
2018-11-05T06:27:22.993Z,79.54
2018-11-05T06:29:50.629Z,79.84
2018-11-05T06:32:18.461Z,79.60
2018-11-05T06:34:46.667Z,79.65
2018-11-05T06:37:14.112Z,79.61
2018-11-05T06:39:41.984Z,79.36
2018-11-05T06:42:09.444Z,79.69
2018-11-05T06:44:36.921Z,79.91
2018-11-05T06:47:08.570Z,80.04
2018-11-05T06:49:36.035Z,80.37
2018-11-05T06:52:03.512Z,80.23
2018-11-05T06:54:31.440Z,79.46
2018-11-05T06:56:58.952Z,79.75
2018-11-05T06:59:26.394Z,79.62
2018-11-05T07:01:55.844Z,79.43
2018-11-05T07:04:23.308Z,79.08
2018-11-05T07:06:50.764Z,78.57
2018-11-05T07:09:19.439Z,78.64
2018-11-05T07:11:46.869Z,78.99
2018-11-05T07:14:14.306Z,78.59
2018-11-05T07:16:42.023Z,78.56
2018-11-05T07:19:10.282Z,77.86
2018-11-05T07:21:37.478Z,78.25
2018-11-05T07:24:05.264Z,78.11
2018-11-05T07:26:32.724Z,77.52
2018-11-05T07:29:00.167Z,77.58
2018-11-05T07:31:28.016Z,77.49
2018-11-05T07:33:55.585Z,77.38
2018-11-05T07:36:23.781Z,77.37
2018-11-05T07:38:51.617Z,76.75
2018-11-05T07:41:22.607Z,76.71
2018-11-05T07:43:51.982Z,76.90
2018-11-05T07:46:19.716Z,76.83
2018-11-05T07:48:47.161Z,76.64
2018-11-05T07:51:14.612Z,76.77
2018-11-05T07:53:42.490Z,76.27
2018-11-05T07:56:10.005Z,76.16
2018-11-05T07:58:37.397Z,75.56
2018-11-05T08:01:05.307Z,75.49
2018-11-05T08:03:32.735Z,75.60
2018-11-05T08:06:01.408Z,75.03
2018-11-05T08:08:29.387Z,75.25
2018-11-05T08:10:56.758Z,74.52
2018-11-05T08:13:28.590Z,74.85
2018-11-05T08:15:56.369Z,74.49
2018-11-05T08:18:23.820Z,74.60
2018-11-05T08:20:51.392Z,74.55
2018-11-05T08:23:19.147Z,74.05
2018-11-05T08:25:47.281Z,74.35
2018-11-05T08:28:14.704Z,74.06
2018-11-05T08:30:44.835Z,73.48
2018-11-05T08:33:12.290Z,73.66
2018-11-05T08:35:45.410Z,73.75
2018-11-05T08:38:13.441Z,74.01
2018-11-05T08:40:41.468Z,73.17
2018-11-05T08:43:09.289Z,73.29
2018-11-05T08:45:36.727Z,73.40
2018-11-05T08:48:04.246Z,73.27
2018-11-05T08:50:32.071Z,73.62
2018-11-05T08:52:59.511Z,73.45
2018-11-05T08:55:27.753Z,73.13
2018-11-05T08:57:55.675Z,72.86
2018-11-05T09:00:29.174Z,73.27
2018-11-05T09:02:56.713Z,72.76
2018-11-05T09:05:27.337Z,73.04
2018-11-05T09:07:55.438Z,73.06
2018-11-05T09:10:23.029Z,73.34
2018-11-05T09:12:50.637Z,73.39
2018-11-05T09:15:20.486Z,72.89
2018-11-05T09:17:48.339Z,73.70
2018-11-05T09:20:18.459Z,73.50
2018-11-05T09:22:46.228Z,73.34
2018-11-05T09:25:14.417Z,73.00
2018-11-05T09:27:42.367Z,72.73
2018-11-05T09:30:10.384Z,72.97
2018-11-05T09:32:37.872Z,71.66
2018-11-05T09:35:05.768Z,71.33
2018-11-05T09:37:33.223Z,71.50
2018-11-05T09:40:01.352Z,71.01
2018-11-05T09:42:29.732Z,70.17
2018-11-05T09:45:03.356Z,69.58
2018-11-05T09:47:30.795Z,69.66
2018-11-05T09:49:59.704Z,69.30
2018-11-05T09:52:27.280Z,68.10
2018-11-05T09:54:54.704Z,67.81
2018-11-05T09:57:22.530Z,67.94
2018-11-05T09:59:51.603Z,66.26
2018-11-05T10:02:20.339Z,65.90
2018-11-05T10:04:49.138Z,65.21
2018-11-05T10:07:16.442Z,63.54
2018-11-05T10:09:44.910Z,63.70
2018-11-05T10:12:12.795Z,62.57
2018-11-05T10:14:40.231Z,62.41
2018-11-05T10:17:08.425Z,62.73
2018-11-05T10:19:37.702Z,62.59
2018-11-05T10:22:05.125Z,63.71
2018-11-05T10:24:33.164Z,64.40
2018-11-05T10:27:02.341Z,64.88
2018-11-05T10:29:29.806Z,64.82
2018-11-05T10:31:57.287Z,63.81
2018-11-05T10:34:25.212Z,63.31
2018-11-05T10:36:52.709Z,62.63
2018-11-05T10:39:20.803Z,62.12
2018-11-05T10:41:51.091Z,62.74
2018-11-05T10:44:18.690Z,62.58
2018-11-05T10:46:52.212Z,63.21
2018-11-05T10:49:24.389Z,63.54
2018-11-05T10:51:52.587Z,62.37
2018-11-05T10:54:20.059Z,61.69
2018-11-05T10:56:48.915Z,60.86
2018-11-05T10:59:16.624Z,61.24
2018-11-05T11:01:53.461Z,60.69
2018-11-05T11:04:26.536Z,60.63
2018-11-05T11:06:55.090Z,59.70
2018-11-05T11:09:24.889Z,59.17
2018-11-05T11:11:52.683Z,59.26
2018-11-05T11:14:20.100Z,59.54
2018-11-05T11:16:47.520Z,60.28
2018-11-05T11:19:15.427Z,61.67
2018-11-05T11:21:42.881Z,62.45
2018-11-05T11:24:10.365Z,63.38
2018-11-05T11:26:39.885Z,64.19
2018-11-05T11:29:08.208Z,65.04
2018-11-05T11:31:35.638Z,64.99
2018-11-05T11:34:03.123Z,65.36
2018-11-05T11:36:30.585Z,66.33
2018-11-05T11:38:58.416Z,66.30
2018-11-05T11:41:28.390Z,66.67
2018-11-05T11:43:55.854Z,66.51
2018-11-05T11:46:24.980Z,67.10
2018-11-05T11:48:52.512Z,66.86
2018-11-05T11:51:21.344Z,67.48
2018-11-05T11:53:50.209Z,67.21
2018-11-05T11:56:18.264Z,67.12
2018-11-05T11:58:45.702Z,67.02
2018-11-05T12:01:13.159Z,67.00
2018-11-05T12:03:41.241Z,66.79
2018-11-05T12:06:10.790Z,66.81
2018-11-05T12:08:38.317Z,67.30
2018-11-05T12:11:05.737Z,67.82
2018-11-05T12:13:35.232Z,68.03
2018-11-05T12:16:02.746Z,68.18
2018-11-05T12:18:34.939Z,68.92
2018-11-05T12:21:03.595Z,68.30
2018-11-05T12:23:31.277Z,67.85
2018-11-05T12:25:58.804Z,67.50
2018-11-05T12:28:27.405Z,67.32
2018-11-05T12:30:55.550Z,67.33
2018-11-05T12:33:25.218Z,67.69
2018-11-05T12:35:53.025Z,67.12
2018-11-05T12:38:20.507Z,67.30
2018-11-05T12:40:48.048Z,67.30
2018-11-05T12:43:15.803Z,67.43
2018-11-05T12:45:43.291Z,67.42
2018-11-05T12:48:10.719Z,67.86
2018-11-05T12:50:38.729Z,67.92
2018-11-05T12:53:06.655Z,68.34
2018-11-05T12:55:34.181Z,68.20
2018-11-05T12:58:01.968Z,68.56
2018-11-05T13:00:29.418Z,67.81
2018-11-05T13:03:00.955Z,68.22
2018-11-05T13:05:29.812Z,67.91
2018-11-05T13:07:57.236Z,67.38
2018-11-05T13:10:24.723Z,67.97
2018-11-05T13:12:52.603Z,67.98
2018-11-05T13:15:21.735Z,67.97
2018-11-05T13:17:50.773Z,67.84
2018-11-05T13:20:23.320Z,67.80
2018-11-05T13:22:50.905Z,67.92
2018-11-05T13:25:18.849Z,67.84
2018-11-05T13:27:48.066Z,67.75
2018-11-05T13:30:16.083Z,67.92
2018-11-05T13:32:47.486Z,68.16
2018-11-05T13:35:17.484Z,67.98
2018-11-05T13:37:45.497Z,68.02
2018-11-05T13:40:13.700Z,68.43
2018-11-05T13:42:43.581Z,69.10
2018-11-05T13:45:12.178Z,69.18
2018-11-05T13:47:40.395Z,68.58
2018-11-05T13:50:07.904Z,68.46
2018-11-05T13:52:36.050Z,69.07
2018-11-05T13:55:03.669Z,68.54
2018-11-05T13:57:32.058Z,68.40
2018-11-05T13:59:59.526Z,68.69
2018-11-05T14:02:26.996Z,68.75
2018-11-05T14:04:55.391Z,68.88
2018-11-05T14:07:24.046Z,68.24
2018-11-05T14:09:51.991Z,69.22
2018-11-05T14:12:20.312Z,69.24
2018-11-05T14:14:47.755Z,69.54
2018-11-05T14:17:15.703Z,69.10
2018-11-05T14:19:45.228Z,69.23
2018-11-05T14:22:12.684Z,69.66
2018-11-05T14:24:40.748Z,69.98
2018-11-05T14:27:11.696Z,69.30
2018-11-05T14:29:39.736Z,70.05
2018-11-05T14:32:06.727Z,69.56
2018-11-05T14:34:35.505Z,69.77
2018-11-05T14:37:02.984Z,70.17
2018-11-05T14:39:30.473Z,70.24
2018-11-05T14:42:01.142Z,70.35
2018-11-05T14:44:29.226Z,70.45
2018-11-05T14:46:58.247Z,71.03
2018-11-05T14:49:25.980Z,71.15
2018-11-05T14:51:53.491Z,71.04
2018-11-05T14:54:22.343Z,70.52
2018-11-05T14:56:52.140Z,70.84
2018-11-05T14:59:19.605Z,70.99
2018-11-05T15:01:47.151Z,71.18
2018-11-05T15:04:15.719Z,71.58
2018-11-05T15:06:43.188Z,71.78
2018-11-05T15:09:12.447Z,72.18
2018-11-05T15:11:40.319Z,71.70
2018-11-05T15:14:08.656Z,71.61
2018-11-05T15:16:37.334Z,71.78
2018-11-05T15:19:05.580Z,72.51
2018-11-05T15:21:34.209Z,72.86
2018-11-05T15:24:01.655Z,73.13
2018-11-05T15:26:30.244Z,73.05
2018-11-05T15:29:01.077Z,73.43
2018-11-05T15:31:28.545Z,73.31
2018-11-05T15:33:56.494Z,73.71
2018-11-05T15:36:23.890Z,73.57
2018-11-05T15:38:51.981Z,73.90
2018-11-05T15:44:01.634Z,73.97
2018-11-05T15:46:29.451Z,73.57
2018-11-05T15:48:58.383Z,74.21
2018-11-05T15:51:26.693Z,73.68
2018-11-05T15:53:55.445Z,74.29
2018-11-05T15:56:22.945Z,73.89
2018-11-05T15:58:50.432Z,74.28
2018-11-05T16:01:18.338Z,74.50
2018-11-05T16:03:45.760Z,74.06
2018-11-05T16:06:13.221Z,74.41
2018-11-05T16:08:41.850Z,74.95
2018-11-05T16:11:09.366Z,75.04
2018-11-05T16:13:37.890Z,74.84
2018-11-05T16:16:06.523Z,74.82
2018-11-05T16:18:34.705Z,74.49
2018-11-05T16:21:02.191Z,75.00
2018-11-05T16:23:30.599Z,74.97
2018-11-05T16:26:01.589Z,74.69
2018-11-05T16:28:29.954Z,74.64
2018-11-05T16:30:57.790Z,74.15
2018-11-05T16:33:25.233Z,74.20
2018-11-05T16:35:54.412Z,74.55
2018-11-05T16:38:22.287Z,74.56
2018-11-05T16:40:50.355Z,74.33
2018-11-05T16:43:17.788Z,74.82
2018-11-05T16:45:47.359Z,74.34
2018-11-05T16:48:18.676Z,74.77
2018-11-05T16:50:48.925Z,74.62
2018-11-05T16:53:18.293Z,74.17
2018-11-05T16:55:46.611Z,74.70
2018-11-05T16:58:14.975Z,74.91
2018-11-05T17:00:44.372Z,74.81
2018-11-05T17:03:11.805Z,74.43
2018-11-05T17:05:41.238Z,74.77
2018-11-05T17:08:09.133Z,75.16
2018-11-05T17:10:36.573Z,74.92
2018-11-05T17:13:04.966Z,75.30
2018-11-05T17:15:32.755Z,74.93
2018-11-05T17:18:00.258Z,75.36
2018-11-05T17:20:27.707Z,74.88
2018-11-05T17:22:55.556Z,75.47
2018-11-05T17:25:22.998Z,75.74
2018-11-05T17:27:50.474Z,75.09
2018-11-05T17:30:21.603Z,75.66
2018-11-05T17:32:49.107Z,75.47
2018-11-05T17:35:17.464Z,75.58
2018-11-05T17:37:49.526Z,75.26
2018-11-05T17:40:19.370Z,75.45
2018-11-05T17:42:47.388Z,75.66
2018-11-05T17:45:16.522Z,75.44
2018-11-05T17:47:44.001Z,75.15
2018-11-05T17:50:13.427Z,75.25
2018-11-05T17:52:44.498Z,75.74
2018-11-05T17:55:16.438Z,75.37
2018-11-05T17:57:45.310Z,75.26
2018-11-05T18:00:16.223Z,75.46
2018-11-05T18:02:43.751Z,75.96
2018-11-05T18:05:11.524Z,75.40
2018-11-05T18:07:40.276Z,75.70
2018-11-05T18:10:09.232Z,75.53
2018-11-05T18:12:36.660Z,75.48
2018-11-05T18:15:04.456Z,75.17
2018-11-05T18:17:33.576Z,75.59
2018-11-05T18:20:01.267Z,75.83
2018-11-05T18:22:34.216Z,75.65
2018-11-05T18:25:02.426Z,75.24
2018-11-05T18:27:30.707Z,75.28
2018-11-05T18:30:03.678Z,75.54
2018-11-05T18:32:33.287Z,75.71
2018-11-05T18:35:02.572Z,75.12
2018-11-05T18:37:30.395Z,74.91
2018-11-05T18:39:59.103Z,74.93
2018-11-05T18:42:26.516Z,75.17
2018-11-05T18:44:54.417Z,75.47
2018-11-05T18:47:22.592Z,75.50
2018-11-05T18:49:50.955Z,75.50
2018-11-05T18:52:18.823Z,75.59
2018-11-05T18:54:46.256Z,75.54
2018-11-05T18:57:13.818Z,75.17
2018-11-05T18:59:42.219Z,75.46
2018-11-05T19:02:09.735Z,75.16
2018-11-05T19:04:37.752Z,75.44
2018-11-05T19:07:05.623Z,75.71
2018-11-05T19:09:37.627Z,75.93
2018-11-05T19:12:06.324Z,75.31
2018-11-05T19:14:34.953Z,76.04
2018-11-05T19:17:06.256Z,75.25
2018-11-05T19:19:33.689Z,76.07
2018-11-05T19:22:01.499Z,75.37
2018-11-05T19:24:29.635Z,75.67
2018-11-05T19:26:57.987Z,75.80
2018-11-05T19:29:25.867Z,75.88
2018-11-05T19:31:53.306Z,75.96
2018-11-05T19:34:22.348Z,75.88
2018-11-05T19:36:50.823Z,76.29
2018-11-05T19:39:23.910Z,76.07
2018-11-05T19:41:51.372Z,76.73
2018-11-05T19:44:19.372Z,76.54
2018-11-05T19:46:46.835Z,76.26
2018-11-05T19:49:14.364Z,76.58
2018-11-05T19:51:42.394Z,76.63
2018-11-05T19:54:09.848Z,76.68
2018-11-05T19:56:38.469Z,76.83
2018-11-05T19:59:07.025Z,76.88
2018-11-05T20:01:34.486Z,76.89
2018-11-05T20:04:03.398Z,76.69
2018-11-05T20:06:32.903Z,76.63
2018-11-05T20:09:00.466Z,77.77
2018-11-05T20:11:28.524Z,76.59
2018-11-05T20:13:58.381Z,76.67
2018-11-05T20:16:26.438Z,77.00
2018-11-05T20:18:55.510Z,76.79
2018-11-05T20:21:23.340Z,76.76
2018-11-05T20:23:52.450Z,77.05
2018-11-05T20:26:20.901Z,77.04
2018-11-05T20:28:53.290Z,77.14
2018-11-05T20:31:21.909Z,77.08
2018-11-05T20:33:49.734Z,76.77
2018-11-05T20:36:18.524Z,76.42
2018-11-05T20:38:47.430Z,76.39
2018-11-05T20:41:16.389Z,76.65
2018-11-05T20:43:44.417Z,76.36
2018-11-05T20:46:13.279Z,76.33
2018-11-05T20:48:40.750Z,76.49
2018-11-05T20:51:09.429Z,76.45
2018-11-05T20:53:41.596Z,76.79
2018-11-05T20:56:10.037Z,76.25
2018-11-05T20:58:37.904Z,76.68
2018-11-05T21:01:05.524Z,77.11
2018-11-05T21:03:34.303Z,77.35
2018-11-05T21:06:02.937Z,77.26
2018-11-05T21:08:30.393Z,76.44
2018-11-05T21:10:59.733Z,76.48
2018-11-05T21:13:27.564Z,76.72
2018-11-05T21:15:54.996Z,76.75
2018-11-05T21:18:23.157Z,77.20
2018-11-05T21:20:54.668Z,77.14
2018-11-05T21:23:24.232Z,76.95
2018-11-05T21:25:52.283Z,77.51
2018-11-05T21:28:20.871Z,77.19
2018-11-05T21:30:48.298Z,77.44
2018-11-05T21:33:15.721Z,77.37
2018-11-05T21:35:44.227Z,77.65
2018-11-05T21:38:12.326Z,77.31
2018-11-05T21:40:41.260Z,77.37
2018-11-05T21:43:14.653Z,77.86
2018-11-05T21:45:42.142Z,77.60
2018-11-05T21:48:13.040Z,76.98
2018-11-05T21:50:42.398Z,77.37
2018-11-05T21:53:10.860Z,77.73
2018-11-05T21:55:38.543Z,77.57
2018-11-05T21:58:07.364Z,77.40
2018-11-05T22:00:35.243Z,77.02
2018-11-05T22:03:08.378Z,77.01
2018-11-05T22:05:35.800Z,76.86
2018-11-05T22:08:03.575Z,77.01
2018-11-05T22:10:31.008Z,77.16
2018-11-05T22:12:58.484Z,77.20
2018-11-05T22:15:30.743Z,76.91
2018-11-05T22:17:58.937Z,77.26
2018-11-05T22:20:26.404Z,77.25
2018-11-05T22:22:54.279Z,76.86
2018-11-05T22:25:21.740Z,76.38
2018-11-05T22:27:50.444Z,76.00
2018-11-05T22:30:17.886Z,75.90
2018-11-05T22:32:47.273Z,75.46
2018-11-05T22:35:14.708Z,75.64
2018-11-05T22:37:44.572Z,76.44
2018-11-05T22:40:14.420Z,76.77
2018-11-05T22:42:41.968Z,76.48
2018-11-05T22:45:11.168Z,77.28
2018-11-05T22:47:39.228Z,77.13
2018-11-05T22:50:07.528Z,77.05
2018-11-05T22:52:35.791Z,76.77
2018-11-05T22:55:04.471Z,76.92
2018-11-05T22:57:31.914Z,76.80
2018-11-05T22:59:59.905Z,77.09
2018-11-05T23:02:27.451Z,76.56
2018-11-05T23:04:54.867Z,77.15
2018-11-05T23:07:23.480Z,77.23
2018-11-05T23:09:52.362Z,77.83
2018-11-05T23:12:19.791Z,77.51
2018-11-05T23:14:47.236Z,77.65
2018-11-05T23:17:17.044Z,78.62
2018-11-05T23:19:44.464Z,77.63
2018-11-05T23:22:11.919Z,77.87
2018-11-05T23:24:39.719Z,78.14
2018-11-05T23:27:07.144Z,78.32
2018-11-05T23:29:35.108Z,78.25
2018-11-05T23:32:03.590Z,77.90
2018-11-05T23:34:31.040Z,78.63
2018-11-05T23:36:58.496Z,78.23
2018-11-05T23:39:26.964Z,77.89
2018-11-05T23:41:54.797Z,78.32
2018-11-05T23:44:22.229Z,77.86
2018-11-05T23:46:49.639Z,77.84
2018-11-05T23:49:17.057Z,77.70
2018-11-05T23:51:44.887Z,77.84
2018-11-05T23:54:12.312Z,77.77
2018-11-05T23:56:39.728Z,77.61
2018-11-05T23:59:09.044Z,77.79
